PAYA/YAK METAR and TAF weather

Enter ICAO airport designator
Station Type Date Time Source
PAYA METAR 2021/03/05 07:42 UTC NOAA

PAYA 050742Z AUTO 00000KT 1/4SM FZFG VV002 M06/M06 A2958 RMK AO2 T10561056 TSNO RVRNO


Station Type Date Time Source
PAYA Decoded METAR 2021/03/05 07:42 UTC NOAA

YAKUTAT AIRPORT, AK, United States (PAYA) 59-30N 139-40W 9M
Mar 05, 2021 - 02:42 AM EST / 2021.03.05 0742 UTC
Wind: Calm:0
Visibility: 1/4 mile(s):0
Sky conditions: obscured
Weather: freezing fog
Temperature: 21.9 F (-5.6 C)
Dew Point: 21.9 F (-5.6 C)
Relative Humidity: 100%
Pressure (altimeter): 29.58 in. Hg (1001 hPa)
ob: PAYA 050742Z AUTO 00000KT 1/4SM FZFG VV002 M06/M06 A2958 RMK AO2 T10561056 TSNO RVRNO
cycle: 7

Station Type Date Time Source
PAYA TAF 2021/03/05 06:48 UTC NOAA

TAF
AMD PAYA 050544Z 0506/0606 09003KT 1 1/2SM BR FEW001
TEMPO 0506/0510 1/4SM FG VV001
FM051200 VRB03KT P6SM BKN100
AMD LTD TO CLD VIS AND WIND

Example: see airport list